sensor_id;sensor_type;location;lat;lon;timestamp;temperature;humidity
18950;DHT22;9608;49.288;8.130;2023-09-08T00:02:27;21.10;99.90
18950;DHT22;9608;49.288;8.130;2023-09-08T00:04:54;21.10;99.90
18950;DHT22;9608;49.288;8.130;2023-09-08T00:07:21;21.10;99.90
18950;DHT22;9608;49.288;8.130;2023-09-08T00:09:49;21.10;99.90
18950;DHT22;9608;49.288;8.130;2023-09-08T00:12:16;21.00;99.90
18950;DHT22;9608;49.288;8.130;2023-09-08T00:14:43;21.00;99.90
18950;DHT22;9608;49.288;8.130;2023-09-08T00:17:10;21.00;99.90
18950;DHT22;9608;49.288;8.130;2023-09-08T00:19:37;20.90;99.90
18950;DHT22;9608;49.288;8.130;2023-09-08T00:22:04;20.90;99.90
18950;DHT22;9608;49.288;8.130;2023-09-08T00:24:32;20.90;99.90
18950;DHT22;9608;49.288;8.130;2023-09-08T00:27:00;20.90;99.90
18950;DHT22;9608;49.288;8.130;2023-09-08T00:29:27;20.90;99.90
18950;DHT22;9608;49.288;8.130;2023-09-08T00:31:54;21.00;99.90
18950;DHT22;9608;49.288;8.130;2023-09-08T00:34:20;21.00;99.90
18950;DHT22;9608;49.288;8.130;2023-09-08T00:36:47;20.90;99.90
18950;DHT22;9608;49.288;8.130;2023-09-08T00:39:14;20.90;99.90
18950;DHT22;9608;49.288;8.130;2023-09-08T00:41:40;20.80;99.90
18950;DHT22;9608;49.288;8.130;2023-09-08T00:44:08;20.70;99.90
18950;DHT22;9608;49.288;8.130;2023-09-08T00:46:36;20.70;99.90
18950;DHT22;9608;49.288;8.130;2023-09-08T00:49:04;20.60;99.90
18950;DHT22;9608;49.288;8.130;2023-09-08T00:51:31;20.50;99.90
18950;DHT22;9608;49.288;8.130;2023-09-08T00:53:59;20.40;99.90
18950;DHT22;9608;49.288;8.130;2023-09-08T00:56:25;20.30;99.90
18950;DHT22;9608;49.288;8.130;2023-09-08T00:58:52;20.10;99.90
18950;DHT22;9608;49.288;8.130;2023-09-08T01:01:20;20.00;99.90
18950;DHT22;9608;49.288;8.130;2023-09-08T01:03:47;20.00;99.90
18950;DHT22;9608;49.288;8.130;2023-09-08T01:06:14;19.90;99.90
18950;DHT22;9608;49.288;8.130;2023-09-08T01:08:41;19.90;99.90
18950;DHT22;9608;49.288;8.130;2023-09-08T01:11:09;20.00;99.90
18950;DHT22;9608;49.288;8.130;2023-09-08T01:13:36;19.80;99.90
18950;DHT22;9608;49.288;8.130;2023-09-08T01:16:03;19.70;99.90
18950;DHT22;9608;49.288;8.130;2023-09-08T01:18:31;19.70;99.90
18950;DHT22;9608;49.288;8.130;2023-09-08T01:21:12;19.80;99.90
18950;DHT22;9608;49.288;8.130;2023-09-08T01:23:54;19.70;99.90
18950;DHT22;9608;49.288;8.130;2023-09-08T01:26:27;19.40;99.90
18950;DHT22;9608;49.288;8.130;2023-09-08T01:28:57;19.30;99.90
18950;DHT22;9608;49.288;8.130;2023-09-08T01:31:25;19.30;99.90
18950;DHT22;9608;49.288;8.130;2023-09-08T01:33:52;19.20;99.90
18950;DHT22;9608;49.288;8.130;2023-09-08T01:36:18;19.20;99.90
18950;DHT22;9608;49.288;8.130;2023-09-08T01:38:45;19.20;99.90
18950;DHT22;9608;49.288;8.130;2023-09-08T01:41:12;19.10;99.90
18950;DHT22;9608;49.288;8.130;2023-09-08T01:43:40;19.20;99.90
18950;DHT22;9608;49.288;8.130;2023-09-08T01:46:07;19.20;99.90
18950;DHT22;9608;49.288;8.130;2023-09-08T01:48:33;19.30;99.90
18950;DHT22;9608;49.288;8.130;2023-09-08T01:51:00;19.30;99.90
18950;DHT22;9608;49.288;8.130;2023-09-08T01:53:27;19.30;99.90
18950;DHT22;9608;49.288;8.130;2023-09-08T01:55:53;19.20;99.90
18950;DHT22;9608;49.288;8.130;2023-09-08T01:58:20;19.20;99.90
18950;DHT22;9608;49.288;8.130;2023-09-08T02:00:49;19.20;99.90
18950;DHT22;9608;49.288;8.130;2023-09-08T02:03:16;19.20;99.90
18950;DHT22;9608;49.288;8.130;2023-09-08T02:05:44;19.20;99.90
18950;DHT22;9608;49.288;8.130;2023-09-08T02:08:11;19.20;99.90
18950;DHT22;9608;49.288;8.130;2023-09-08T02:10:40;19.30;99.90
18950;DHT22;9608;49.288;8.130;2023-09-08T02:13:07;19.30;99.90
18950;DHT22;9608;49.288;8.130;2023-09-08T02:15:35;19.30;99.90
18950;DHT22;9608;49.288;8.130;2023-09-08T02:18:03;19.30;99.90
18950;DHT22;9608;49.288;8.130;2023-09-08T02:20:30;19.30;99.90
18950;DHT22;9608;49.288;8.130;2023-09-08T02:23:03;19.30;99.90
18950;DHT22;9608;49.288;8.130;2023-09-08T02:25:30;19.20;99.90
18950;DHT22;9608;49.288;8.130;2023-09-08T02:27:57;19.30;99.90
18950;DHT22;9608;49.288;8.130;2023-09-08T02:30:23;19.30;99.90
18950;DHT22;9608;49.288;8.130;2023-09-08T02:32:50;19.20;99.90
18950;DHT22;9608;49.288;8.130;2023-09-08T02:35:18;19.20;99.90
18950;DHT22;9608;49.288;8.130;2023-09-08T02:37:45;19.20;99.90
18950;DHT22;9608;49.288;8.130;2023-09-08T02:40:12;19.20;99.90
18950;DHT22;9608;49.288;8.130;2023-09-08T02:42:38;19.20;99.90
18950;DHT22;9608;49.288;8.130;2023-09-08T02:45:06;19.20;99.90
18950;DHT22;9608;49.288;8.130;2023-09-08T02:47:32;19.20;99.90
18950;DHT22;9608;49.288;8.130;2023-09-08T02:49:59;19.20;99.90
18950;DHT22;9608;49.288;8.130;2023-09-08T02:52:27;19.10;99.90
18950;DHT22;9608;49.288;8.130;2023-09-08T02:54:54;19.00;99.90
18950;DHT22;9608;49.288;8.130;2023-09-08T02:57:21;18.90;99.90
18950;DHT22;9608;49.288;8.130;2023-09-08T02:59:51;18.80;99.90
18950;DHT22;9608;49.288;8.130;2023-09-08T03:02:18;18.70;99.90
18950;DHT22;9608;49.288;8.130;2023-09-08T03:04:45;18.60;99.90
18950;DHT22;9608;49.288;8.130;2023-09-08T03:07:11;18.50;99.90
18950;DHT22;9608;49.288;8.130;2023-09-08T03:09:39;18.50;99.90
18950;DHT22;9608;49.288;8.130;2023-09-08T03:12:06;18.40;99.90
18950;DHT22;9608;49.288;8.130;2023-09-08T03:14:33;18.30;99.90
18950;DHT22;9608;49.288;8.130;2023-09-08T03:17:00;18.30;99.90
18950;DHT22;9608;49.288;8.130;2023-09-08T03:19:26;18.40;99.90
18950;DHT22;9608;49.288;8.130;2023-09-08T03:21:53;18.40;99.90
18950;DHT22;9608;49.288;8.130;2023-09-08T03:24:20;18.40;99.90
18950;DHT22;9608;49.288;8.130;2023-09-08T03:26:48;18.40;99.90
18950;DHT22;9608;49.288;8.130;2023-09-08T03:29:14;18.40;99.90
18950;DHT22;9608;49.288;8.130;2023-09-08T03:31:41;18.40;99.90
18950;DHT22;9608;49.288;8.130;2023-09-08T03:34:08;18.40;99.90
18950;DHT22;9608;49.288;8.130;2023-09-08T03:36:34;18.50;99.90
18950;DHT22;9608;49.288;8.130;2023-09-08T03:39:02;18.50;99.90
18950;DHT22;9608;49.288;8.130;2023-09-08T03:41:29;18.50;99.90
18950;DHT22;9608;49.288;8.130;2023-09-08T03:43:57;18.50;99.90
18950;DHT22;9608;49.288;8.130;2023-09-08T03:46:24;18.40;99.90
18950;DHT22;9608;49.288;8.130;2023-09-08T03:48:50;18.40;99.90
18950;DHT22;9608;49.288;8.130;2023-09-08T03:51:17;18.40;99.90
18950;DHT22;9608;49.288;8.130;2023-09-08T03:53:44;18.40;99.90
18950;DHT22;9608;49.288;8.130;2023-09-08T03:56:11;18.40;99.90
18950;DHT22;9608;49.288;8.130;2023-09-08T03:58:38;18.40;99.90
18950;DHT22;9608;49.288;8.130;2023-09-08T04:01:06;18.40;99.90
18950;DHT22;9608;49.288;8.130;2023-09-08T04:03:32;18.40;99.90
18950;DHT22;9608;49.288;8.130;2023-09-08T04:05:59;18.40;99.90
18950;DHT22;9608;49.288;8.130;2023-09-08T04:08:26;18.40;99.90
18950;DHT22;9608;49.288;8.130;2023-09-08T04:10:52;18.40;99.90
18950;DHT22;9608;49.288;8.130;2023-09-08T04:13:19;18.40;99.90
18950;DHT22;9608;49.288;8.130;2023-09-08T04:15:46;18.40;99.90
18950;DHT22;9608;49.288;8.130;2023-09-08T04:18:14;18.30;99.90
18950;DHT22;9608;49.288;8.130;2023-09-08T04:20:40;18.30;99.90
18950;DHT22;9608;49.288;8.130;2023-09-08T04:23:07;18.30;99.90
18950;DHT22;9608;49.288;8.130;2023-09-08T04:25:34;18.30;99.90
18950;DHT22;9608;49.288;8.130;2023-09-08T04:28:02;18.30;99.90
18950;DHT22;9608;49.288;8.130;2023-09-08T04:30:28;18.20;99.90
18950;DHT22;9608;49.288;8.130;2023-09-08T04:32:55;18.20;99.90
18950;DHT22;9608;49.288;8.130;2023-09-08T04:35:23;18.20;99.90
18950;DHT22;9608;49.288;8.130;2023-09-08T04:37:50;18.20;99.90
18950;DHT22;9608;49.288;8.130;2023-09-08T04:40:16;18.10;99.90
18950;DHT22;9608;49.288;8.130;2023-09-08T04:42:43;18.20;99.90
18950;DHT22;9608;49.288;8.130;2023-09-08T04:45:10;18.20;99.90
18950;DHT22;9608;49.288;8.130;2023-09-08T04:47:39;18.20;99.90
18950;DHT22;9608;49.288;8.130;2023-09-08T04:50:06;18.20;99.90
18950;DHT22;9608;49.288;8.130;2023-09-08T04:52:34;18.20;99.90
18950;DHT22;9608;49.288;8.130;2023-09-08T04:55:01;18.30;99.90
18950;DHT22;9608;49.288;8.130;2023-09-08T04:57:28;18.30;99.90
18950;DHT22;9608;49.288;8.130;2023-09-08T04:59:55;18.30;99.90
18950;DHT22;9608;49.288;8.130;2023-09-08T05:02:22;18.30;99.90
18950;DHT22;9608;49.288;8.130;2023-09-08T05:04:48;18.40;99.90
18950;DHT22;9608;49.288;8.130;2023-09-08T05:07:15;18.50;99.90
18950;DHT22;9608;49.288;8.130;2023-09-08T05:09:45;18.60;99.90
18950;DHT22;9608;49.288;8.130;2023-09-08T05:12:11;18.60;99.90
18950;DHT22;9608;49.288;8.130;2023-09-08T05:14:38;18.70;99.90
18950;DHT22;9608;49.288;8.130;2023-09-08T05:17:05;18.70;99.90
18950;DHT22;9608;49.288;8.130;2023-09-08T05:19:31;18.80;99.90
18950;DHT22;9608;49.288;8.130;2023-09-08T05:21:58;18.90;99.90
18950;DHT22;9608;49.288;8.130;2023-09-08T05:24:25;18.90;99.90
18950;DHT22;9608;49.288;8.130;2023-09-08T05:26:53;19.00;99.90
18950;DHT22;9608;49.288;8.130;2023-09-08T05:29:20;19.00;99.90
18950;DHT22;9608;49.288;8.130;2023-09-08T05:31:47;19.00;99.90
18950;DHT22;9608;49.288;8.130;2023-09-08T05:34:13;19.00;99.90
18950;DHT22;9608;49.288;8.130;2023-09-08T05:36:40;19.10;99.90
18950;DHT22;9608;49.288;8.130;2023-09-08T05:39:08;19.10;99.90
18950;DHT22;9608;49.288;8.130;2023-09-08T05:41:35;19.20;99.90
18950;DHT22;9608;49.288;8.130;2023-09-08T05:44:04;19.30;99.90
18950;DHT22;9608;49.288;8.130;2023-09-08T05:46:31;19.40;99.90
18950;DHT22;9608;49.288;8.130;2023-09-08T05:48:57;19.50;99.90
18950;DHT22;9608;49.288;8.130;2023-09-08T05:51:24;19.60;99.90
18950;DHT22;9608;49.288;8.130;2023-09-08T05:53:51;19.80;99.90
18950;DHT22;9608;49.288;8.130;2023-09-08T05:56:18;19.80;99.90
18950;DHT22;9608;49.288;8.130;2023-09-08T05:58:45;20.00;99.90
18950;DHT22;9608;49.288;8.130;2023-09-08T06:01:15;20.10;99.90
18950;DHT22;9608;49.288;8.130;2023-09-08T06:03:42;20.30;99.90
18950;DHT22;9608;49.288;8.130;2023-09-08T06:06:10;20.40;99.90
18950;DHT22;9608;49.288;8.130;2023-09-08T06:08:37;20.60;99.90
18950;DHT22;9608;49.288;8.130;2023-09-08T06:11:04;20.70;99.90
18950;DHT22;9608;49.288;8.130;2023-09-08T06:13:32;20.80;99.90
18950;DHT22;9608;49.288;8.130;2023-09-08T06:16:02;20.90;99.90
18950;DHT22;9608;49.288;8.130;2023-09-08T06:18:31;20.80;99.90
18950;DHT22;9608;49.288;8.130;2023-09-08T06:21:06;21.00;99.90
18950;DHT22;9608;49.288;8.130;2023-09-08T06:23:35;21.20;99.90
18950;DHT22;9608;49.288;8.130;2023-09-08T06:26:03;21.30;99.90
18950;DHT22;9608;49.288;8.130;2023-09-08T06:28:31;21.10;99.90
18950;DHT22;9608;49.288;8.130;2023-09-08T06:30:58;20.90;99.90
18950;DHT22;9608;49.288;8.130;2023-09-08T06:33:25;20.70;99.90
18950;DHT22;9608;49.288;8.130;2023-09-08T06:35:56;20.30;99.90
18950;DHT22;9608;49.288;8.130;2023-09-08T06:38:23;20.10;99.90
18950;DHT22;9608;49.288;8.130;2023-09-08T06:40:51;20.10;99.90
18950;DHT22;9608;49.288;8.130;2023-09-08T06:43:19;20.10;99.90
18950;DHT22;9608;49.288;8.130;2023-09-08T06:45:47;20.10;99.90
18950;DHT22;9608;49.288;8.130;2023-09-08T06:48:16;20.30;99.90
18950;DHT22;9608;49.288;8.130;2023-09-08T06:50:43;20.40;99.90
18950;DHT22;9608;49.288;8.130;2023-09-08T06:53:15;20.30;99.90
18950;DHT22;9608;49.288;8.130;2023-09-08T06:55:43;20.30;99.90
18950;DHT22;9608;49.288;8.130;2023-09-08T06:58:12;20.50;99.90
18950;DHT22;9608;49.288;8.130;2023-09-08T07:00:40;20.50;99.90
18950;DHT22;9608;49.288;8.130;2023-09-08T07:03:10;20.60;99.90
18950;DHT22;9608;49.288;8.130;2023-09-08T07:05:39;20.70;99.90
18950;DHT22;9608;49.288;8.130;2023-09-08T07:08:06;20.90;99.90
18950;DHT22;9608;49.288;8.130;2023-09-08T07:10:36;21.00;99.90
18950;DHT22;9608;49.288;8.130;2023-09-08T07:13:04;21.00;99.90
18950;DHT22;9608;49.288;8.130;2023-09-08T07:15:33;21.10;99.90
18950;DHT22;9608;49.288;8.130;2023-09-08T07:18:02;21.20;99.90
18950;DHT22;9608;49.288;8.130;2023-09-08T07:20:30;21.40;99.90
18950;DHT22;9608;49.288;8.130;2023-09-08T07:22:57;21.60;99.90
18950;DHT22;9608;49.288;8.130;2023-09-08T07:25:24;21.90;99.90
18950;DHT22;9608;49.288;8.130;2023-09-08T07:28:03;22.10;99.90
18950;DHT22;9608;49.288;8.130;2023-09-08T07:30:33;22.10;99.90
18950;DHT22;9608;49.288;8.130;2023-09-08T07:33:04;22.10;99.90
18950;DHT22;9608;49.288;8.130;2023-09-08T07:35:40;22.00;99.90
18950;DHT22;9608;49.288;8.130;2023-09-08T07:38:09;22.00;99.90
18950;DHT22;9608;49.288;8.130;2023-09-08T07:40:38;22.10;99.90
18950;DHT22;9608;49.288;8.130;2023-09-08T07:43:07;22.20;99.90
18950;DHT22;9608;49.288;8.130;2023-09-08T07:45:34;22.30;99.90
18950;DHT22;9608;49.288;8.130;2023-09-08T07:48:01;22.50;99.90
18950;DHT22;9608;49.288;8.130;2023-09-08T07:50:28;22.70;99.90
18950;DHT22;9608;49.288;8.130;2023-09-08T07:52:57;22.60;99.90
18950;DHT22;9608;49.288;8.130;2023-09-08T07:55:24;22.60;99.90
18950;DHT22;9608;49.288;8.130;2023-09-08T07:57:53;22.50;99.90
18950;DHT22;9608;49.288;8.130;2023-09-08T08:00:25;22.50;99.90
18950;DHT22;9608;49.288;8.130;2023-09-08T08:02:55;22.80;99.90
18950;DHT22;9608;49.288;8.130;2023-09-08T08:05:24;22.90;99.90
18950;DHT22;9608;49.288;8.130;2023-09-08T08:07:54;22.90;99.90
18950;DHT22;9608;49.288;8.130;2023-09-08T08:10:23;22.90;99.90
18950;DHT22;9608;49.288;8.130;2023-09-08T08:12:51;23.20;99.90
18950;DHT22;9608;49.288;8.130;2023-09-08T08:15:19;23.40;99.90
18950;DHT22;9608;49.288;8.130;2023-09-08T08:17:50;23.30;99.90
18950;DHT22;9608;49.288;8.130;2023-09-08T08:20:18;23.60;99.90
18950;DHT22;9608;49.288;8.130;2023-09-08T08:22:52;23.70;99.90
18950;DHT22;9608;49.288;8.130;2023-09-08T08:25:23;23.70;99.90
18950;DHT22;9608;49.288;8.130;2023-09-08T08:27:51;23.70;99.90
18950;DHT22;9608;49.288;8.130;2023-09-08T08:30:31;24.00;99.90
18950;DHT22;9608;49.288;8.130;2023-09-08T08:33:16;23.90;99.90
18950;DHT22;9608;49.288;8.130;2023-09-08T08:35:57;23.60;99.90
18950;DHT22;9608;49.288;8.130;2023-09-08T08:38:53;23.50;99.90
18950;DHT22;9608;49.288;8.130;2023-09-08T08:41:41;23.50;99.90
18950;DHT22;9608;49.288;8.130;2023-09-08T08:44:20;23.50;99.90
18950;DHT22;9608;49.288;8.130;2023-09-08T08:46:49;23.80;99.90
18950;DHT22;9608;49.288;8.130;2023-09-08T08:49:21;24.00;99.90
18950;DHT22;9608;49.288;8.130;2023-09-08T08:51:52;23.80;99.90
18950;DHT22;9608;49.288;8.130;2023-09-08T08:54:20;23.70;99.90
18950;DHT22;9608;49.288;8.130;2023-09-08T08:56:49;23.70;99.90
18950;DHT22;9608;49.288;8.130;2023-09-08T08:59:18;23.90;99.90
18950;DHT22;9608;49.288;8.130;2023-09-08T09:01:48;23.90;99.90
18950;DHT22;9608;49.288;8.130;2023-09-08T09:04:20;23.90;99.90
18950;DHT22;9608;49.288;8.130;2023-09-08T09:06:54;23.90;99.90
18950;DHT22;9608;49.288;8.130;2023-09-08T09:09:25;24.00;99.90
18950;DHT22;9608;49.288;8.130;2023-09-08T09:11:54;24.30;99.90
18950;DHT22;9608;49.288;8.130;2023-09-08T09:14:21;24.40;99.90
18950;DHT22;9608;49.288;8.130;2023-09-08T09:17:06;24.50;99.90
18950;DHT22;9608;49.288;8.130;2023-09-08T09:19:42;24.20;99.90
18950;DHT22;9608;49.288;8.130;2023-09-08T09:22:11;24.30;99.90
18950;DHT22;9608;49.288;8.130;2023-09-08T09:24:40;24.50;99.90
18950;DHT22;9608;49.288;8.130;2023-09-08T09:27:09;24.70;99.90
18950;DHT22;9608;49.288;8.130;2023-09-08T09:29:44;24.70;99.90
18950;DHT22;9608;49.288;8.130;2023-09-08T09:32:12;24.70;99.90
18950;DHT22;9608;49.288;8.130;2023-09-08T09:34:50;24.70;99.90
18950;DHT22;9608;49.288;8.130;2023-09-08T09:37:18;24.90;99.90
18950;DHT22;9608;49.288;8.130;2023-09-08T09:39:48;25.10;99.90
18950;DHT22;9608;49.288;8.130;2023-09-08T09:42:16;24.70;99.90
18950;DHT22;9608;49.288;8.130;2023-09-08T09:44:46;24.50;99.90
18950;DHT22;9608;49.288;8.130;2023-09-08T09:47:14;24.50;99.90
18950;DHT22;9608;49.288;8.130;2023-09-08T09:49:45;24.40;99.90
18950;DHT22;9608;49.288;8.130;2023-09-08T09:52:21;24.50;99.90
18950;DHT22;9608;49.288;8.130;2023-09-08T09:54:51;24.70;99.90
18950;DHT22;9608;49.288;8.130;2023-09-08T09:57:21;24.80;99.90
18950;DHT22;9608;49.288;8.130;2023-09-08T09:59:51;24.60;99.90
18950;DHT22;9608;49.288;8.130;2023-09-08T10:02:19;24.60;99.90
18950;DHT22;9608;49.288;8.130;2023-09-08T10:04:48;24.70;99.90
18950;DHT22;9608;49.288;8.130;2023-09-08T10:07:20;24.70;99.90
18950;DHT22;9608;49.288;8.130;2023-09-08T10:09:48;24.90;99.90
18950;DHT22;9608;49.288;8.130;2023-09-08T10:12:16;25.10;99.90
18950;DHT22;9608;49.288;8.130;2023-09-08T10:14:45;24.90;99.90
18950;DHT22;9608;49.288;8.130;2023-09-08T10:17:19;25.00;99.90
18950;DHT22;9608;49.288;8.130;2023-09-08T10:19:51;25.40;99.90
18950;DHT22;9608;49.288;8.130;2023-09-08T10:22:27;25.20;99.90
18950;DHT22;9608;49.288;8.130;2023-09-08T10:25:00;25.40;99.90
18950;DHT22;9608;49.288;8.130;2023-09-08T10:27:31;25.20;99.90
18950;DHT22;9608;49.288;8.130;2023-09-08T10:30:00;25.50;99.90
18950;DHT22;9608;49.288;8.130;2023-09-08T10:32:30;25.80;99.90
18950;DHT22;9608;49.288;8.130;2023-09-08T10:35:00;25.60;99.90
18950;DHT22;9608;49.288;8.130;2023-09-08T10:37:31;25.70;99.90
18950;DHT22;9608;49.288;8.130;2023-09-08T10:40:23;26.10;99.90
18950;DHT22;9608;49.288;8.130;2023-09-08T10:43:08;26.40;99.90
18950;DHT22;9608;49.288;8.130;2023-09-08T10:45:37;26.40;99.90
18950;DHT22;9608;49.288;8.130;2023-09-08T10:48:07;26.40;99.90
18950;DHT22;9608;49.288;8.130;2023-09-08T10:50:40;26.10;99.90
18950;DHT22;9608;49.288;8.130;2023-09-08T10:53:13;26.30;99.90
18950;DHT22;9608;49.288;8.130;2023-09-08T10:55:42;26.20;99.90
18950;DHT22;9608;49.288;8.130;2023-09-08T10:58:20;26.20;99.90
18950;DHT22;9608;49.288;8.130;2023-09-08T11:00:51;26.30;99.90
18950;DHT22;9608;49.288;8.130;2023-09-08T11:03:41;26.30;99.90
18950;DHT22;9608;49.288;8.130;2023-09-08T11:06:10;26.50;99.90
18950;DHT22;9608;49.288;8.130;2023-09-08T11:08:42;26.70;99.90
18950;DHT22;9608;49.288;8.130;2023-09-08T11:11:10;26.60;99.90
18950;DHT22;9608;49.288;8.130;2023-09-08T11:13:38;26.20;99.90
18950;DHT22;9608;49.288;8.130;2023-09-08T11:16:07;26.20;99.90
18950;DHT22;9608;49.288;8.130;2023-09-08T11:18:34;26.10;99.90
18950;DHT22;9608;49.288;8.130;2023-09-08T11:21:02;26.30;99.90
18950;DHT22;9608;49.288;8.130;2023-09-08T11:23:29;26.60;99.90
18950;DHT22;9608;49.288;8.130;2023-09-08T11:25:59;26.70;99.90
18950;DHT22;9608;49.288;8.130;2023-09-08T11:28:27;26.90;99.90
18950;DHT22;9608;49.288;8.130;2023-09-08T11:30:55;26.60;99.90
18950;DHT22;9608;49.288;8.130;2023-09-08T11:33:22;26.60;99.90
18950;DHT22;9608;49.288;8.130;2023-09-08T11:35:50;26.80;99.90
18950;DHT22;9608;49.288;8.130;2023-09-08T11:38:17;26.70;99.90
18950;DHT22;9608;49.288;8.130;2023-09-08T11:40:44;26.90;99.90
18950;DHT22;9608;49.288;8.130;2023-09-08T11:43:12;27.00;99.90
18950;DHT22;9608;49.288;8.130;2023-09-08T11:45:43;27.20;99.90
18950;DHT22;9608;49.288;8.130;2023-09-08T11:48:10;27.20;99.90
18950;DHT22;9608;49.288;8.130;2023-09-08T11:50:36;27.30;99.90
18950;DHT22;9608;49.288;8.130;2023-09-08T11:53:03;27.50;99.90
18950;DHT22;9608;49.288;8.130;2023-09-08T11:55:31;27.50;99.90
18950;DHT22;9608;49.288;8.130;2023-09-08T11:57:58;27.30;99.90
18950;DHT22;9608;49.288;8.130;2023-09-08T12:00:28;27.40;99.90
18950;DHT22;9608;49.288;8.130;2023-09-08T12:02:55;27.50;99.90
18950;DHT22;9608;49.288;8.130;2023-09-08T12:05:23;27.50;99.90
18950;DHT22;9608;49.288;8.130;2023-09-08T12:07:51;27.50;99.90
18950;DHT22;9608;49.288;8.130;2023-09-08T12:10:18;27.40;99.90
18950;DHT22;9608;49.288;8.130;2023-09-08T12:12:46;27.50;99.90
18950;DHT22;9608;49.288;8.130;2023-09-08T12:15:33;27.60;99.90
18950;DHT22;9608;49.288;8.130;2023-09-08T12:18:00;27.60;99.90
18950;DHT22;9608;49.288;8.130;2023-09-08T12:20:28;27.40;99.90
18950;DHT22;9608;49.288;8.130;2023-09-08T12:22:56;27.50;99.90
18950;DHT22;9608;49.288;8.130;2023-09-08T12:25:23;27.50;99.90
18950;DHT22;9608;49.288;8.130;2023-09-08T12:27:50;27.50;99.90
18950;DHT22;9608;49.288;8.130;2023-09-08T12:30:19;27.70;99.90
18950;DHT22;9608;49.288;8.130;2023-09-08T12:32:48;27.90;99.90
18950;DHT22;9608;49.288;8.130;2023-09-08T12:35:20;27.80;99.90
18950;DHT22;9608;49.288;8.130;2023-09-08T12:37:57;27.90;99.90
18950;DHT22;9608;49.288;8.130;2023-09-08T12:40:24;27.90;99.90
18950;DHT22;9608;49.288;8.130;2023-09-08T12:42:51;28.10;99.90
18950;DHT22;9608;49.288;8.130;2023-09-08T12:45:18;28.20;99.90
18950;DHT22;9608;49.288;8.130;2023-09-08T12:47:44;28.00;99.90
18950;DHT22;9608;49.288;8.130;2023-09-08T12:50:12;28.00;99.90
18950;DHT22;9608;49.288;8.130;2023-09-08T12:52:39;28.30;99.90
18950;DHT22;9608;49.288;8.130;2023-09-08T12:55:07;28.30;99.90
18950;DHT22;9608;49.288;8.130;2023-09-08T12:57:34;28.30;99.90
18950;DHT22;9608;49.288;8.130;2023-09-08T13:00:02;28.40;99.90
18950;DHT22;9608;49.288;8.130;2023-09-08T13:02:29;28.30;99.90
18950;DHT22;9608;49.288;8.130;2023-09-08T13:04:55;28.00;99.90
18950;DHT22;9608;49.288;8.130;2023-09-08T13:07:24;27.90;99.90
18950;DHT22;9608;49.288;8.130;2023-09-08T13:09:52;27.80;99.90
18950;DHT22;9608;49.288;8.130;2023-09-08T13:12:19;27.80;99.90
18950;DHT22;9608;49.288;8.130;2023-09-08T13:14:45;28.10;99.90
18950;DHT22;9608;49.288;8.130;2023-09-08T13:17:12;28.20;99.90
18950;DHT22;9608;49.288;8.130;2023-09-08T13:19:40;28.30;99.90
18950;DHT22;9608;49.288;8.130;2023-09-08T13:22:07;28.40;99.90
18950;DHT22;9608;49.288;8.130;2023-09-08T13:24:35;28.70;99.90
18950;DHT22;9608;49.288;8.130;2023-09-08T13:27:03;28.90;99.90
18950;DHT22;9608;49.288;8.130;2023-09-08T13:29:29;28.80;99.90
18950;DHT22;9608;49.288;8.130;2023-09-08T13:31:56;28.80;99.90
18950;DHT22;9608;49.288;8.130;2023-09-08T13:34:24;28.70;99.90
18950;DHT22;9608;49.288;8.130;2023-09-08T13:36:50;28.60;99.90
18950;DHT22;9608;49.288;8.130;2023-09-08T13:39:17;28.40;99.90
18950;DHT22;9608;49.288;8.130;2023-09-08T13:41:50;28.40;99.90
18950;DHT22;9608;49.288;8.130;2023-09-08T13:44:17;28.20;99.90
18950;DHT22;9608;49.288;8.130;2023-09-08T13:46:45;28.10;99.90
18950;DHT22;9608;49.288;8.130;2023-09-08T13:49:12;28.20;99.90
18950;DHT22;9608;49.288;8.130;2023-09-08T13:51:39;28.40;99.90
18950;DHT22;9608;49.288;8.130;2023-09-08T13:54:05;28.40;99.90
18950;DHT22;9608;49.288;8.130;2023-09-08T13:56:33;28.50;99.90
18950;DHT22;9608;49.288;8.130;2023-09-08T13:59:01;28.60;99.90
18950;DHT22;9608;49.288;8.130;2023-09-08T14:01:28;28.80;99.90
18950;DHT22;9608;49.288;8.130;2023-09-08T14:03:55;28.90;99.90
18950;DHT22;9608;49.288;8.130;2023-09-08T14:06:22;29.00;99.90
18950;DHT22;9608;49.288;8.130;2023-09-08T14:08:49;29.00;99.90
18950;DHT22;9608;49.288;8.130;2023-09-08T14:11:16;28.80;99.90
18950;DHT22;9608;49.288;8.130;2023-09-08T14:13:42;28.90;99.90
18950;DHT22;9608;49.288;8.130;2023-09-08T14:16:11;29.00;99.90
18950;DHT22;9608;49.288;8.130;2023-09-08T14:18:38;29.10;99.90
18950;DHT22;9608;49.288;8.130;2023-09-08T14:21:04;29.10;99.90
18950;DHT22;9608;49.288;8.130;2023-09-08T14:23:32;29.00;99.90
18950;DHT22;9608;49.288;8.130;2023-09-08T14:25:59;28.90;99.90
18950;DHT22;9608;49.288;8.130;2023-09-08T14:28:26;28.90;99.90
18950;DHT22;9608;49.288;8.130;2023-09-08T14:30:53;28.90;99.90
18950;DHT22;9608;49.288;8.130;2023-09-08T14:33:21;29.10;99.90
18950;DHT22;9608;49.288;8.130;2023-09-08T14:35:48;29.00;99.90
18950;DHT22;9608;49.288;8.130;2023-09-08T14:38:16;28.80;99.90
18950;DHT22;9608;49.288;8.130;2023-09-08T14:40:43;29.00;99.90
18950;DHT22;9608;49.288;8.130;2023-09-08T14:43:10;29.00;99.90
18950;DHT22;9608;49.288;8.130;2023-09-08T14:45:37;29.10;99.90
18950;DHT22;9608;49.288;8.130;2023-09-08T14:48:04;28.80;99.90
18950;DHT22;9608;49.288;8.130;2023-09-08T14:50:35;28.50;99.90
18950;DHT22;9608;49.288;8.130;2023-09-08T14:53:02;28.40;99.90
18950;DHT22;9608;49.288;8.130;2023-09-08T14:55:29;28.60;99.90
18950;DHT22;9608;49.288;8.130;2023-09-08T14:57:56;28.70;99.90
18950;DHT22;9608;49.288;8.130;2023-09-08T15:00:22;28.90;99.90
18950;DHT22;9608;49.288;8.130;2023-09-08T15:02:49;28.70;99.90
18950;DHT22;9608;49.288;8.130;2023-09-08T15:05:16;28.60;99.90
18950;DHT22;9608;49.288;8.130;2023-09-08T15:07:44;28.50;99.90
18950;DHT22;9608;49.288;8.130;2023-09-08T15:10:11;28.70;99.90
18950;DHT22;9608;49.288;8.130;2023-09-08T15:12:38;28.70;99.90
18950;DHT22;9608;49.288;8.130;2023-09-08T15:15:06;28.80;99.90
18950;DHT22;9608;49.288;8.130;2023-09-08T15:17:33;28.80;99.90
18950;DHT22;9608;49.288;8.130;2023-09-08T15:19:59;28.90;99.90
18950;DHT22;9608;49.288;8.130;2023-09-08T15:22:26;28.80;99.90
18950;DHT22;9608;49.288;8.130;2023-09-08T15:24:54;28.60;99.90
18950;DHT22;9608;49.288;8.130;2023-09-08T15:27:21;28.60;99.90
18950;DHT22;9608;49.288;8.130;2023-09-08T15:29:48;28.70;99.90
18950;DHT22;9608;49.288;8.130;2023-09-08T15:32:14;28.90;99.90
18950;DHT22;9608;49.288;8.130;2023-09-08T15:34:41;28.80;99.90
18950;DHT22;9608;49.288;8.130;2023-09-08T15:37:12;28.90;99.90
18950;DHT22;9608;49.288;8.130;2023-09-08T15:39:38;28.80;99.90
18950;DHT22;9608;49.288;8.130;2023-09-08T15:42:07;28.70;99.90
18950;DHT22;9608;49.288;8.130;2023-09-08T15:44:33;28.70;99.90
18950;DHT22;9608;49.288;8.130;2023-09-08T15:47:00;28.70;99.90
18950;DHT22;9608;49.288;8.130;2023-09-08T15:49:27;28.70;99.90
18950;DHT22;9608;49.288;8.130;2023-09-08T15:51:53;28.80;99.90
18950;DHT22;9608;49.288;8.130;2023-09-08T15:54:20;28.80;99.90